createdAt,value
2019-02-02T00:02:04.143Z,48.30
2019-02-02T00:04:38.866Z,41.77
2019-02-02T00:07:13.702Z,46.93
2019-02-02T00:09:48.599Z,45.40
2019-02-02T00:12:23.537Z,47.40
2019-02-02T00:14:58.426Z,47.37
2019-02-02T00:17:33.370Z,41.87
2019-02-02T00:20:08.924Z,54.67
2019-02-02T00:22:43.870Z,45.40
2019-02-02T00:25:18.713Z,43.00
2019-02-02T00:27:54.748Z,40.97
2019-02-02T00:30:29.578Z,41.60
2019-02-02T00:33:04.565Z,46.37
2019-02-02T00:35:39.300Z,42.70
2019-02-02T00:38:14.164Z,38.80
2019-02-02T00:40:48.986Z,45.50
2019-02-02T00:43:23.836Z,44.50
2019-02-02T00:45:58.700Z,51.17
2019-02-02T00:48:33.709Z,44.97
2019-02-02T00:51:08.576Z,47.93
2019-02-02T00:53:43.564Z,41.97
2019-02-02T00:56:19.676Z,47.80
2019-02-02T00:58:54.421Z,49.93
2019-02-02T01:01:29.168Z,40.27
2019-02-02T01:04:04.132Z,52.37
2019-02-02T01:06:38.861Z,59.00
2019-02-02T01:09:21.709Z,51.20
2019-02-02T01:11:56.658Z,47.27
2019-02-02T01:14:31.539Z,49.43
2019-02-02T01:17:06.382Z,44.07
2019-02-02T01:19:41.396Z,47.93
2019-02-02T01:22:16.232Z,42.43
2019-02-02T01:24:50.996Z,47.57
2019-02-02T01:27:25.806Z,45.13
2019-02-02T01:30:00.772Z,45.90
2019-02-02T01:32:36.678Z,52.93
2019-02-02T01:35:12.979Z,48.30
2019-02-02T01:37:48.226Z,47.40
2019-02-02T01:40:24.355Z,55.37
2019-02-02T01:43:00.102Z,53.40
2019-02-02T01:45:34.948Z,50.10
2019-02-02T01:48:09.777Z,52.90
2019-02-02T01:50:44.622Z,57.80
2019-02-02T01:53:19.442Z,54.27
2019-02-02T01:55:55.144Z,51.57
2019-02-02T01:58:29.978Z,53.57
2019-02-02T02:01:04.770Z,49.13
2019-02-02T02:03:39.514Z,50.10
2019-02-02T02:06:14.347Z,51.67
2019-02-02T02:08:49.350Z,57.93
2019-02-02T02:11:24.222Z,48.60
2019-02-02T02:13:58.964Z,49.10
2019-02-02T02:16:34.013Z,49.70
2019-02-02T02:19:09.784Z,48.87
2019-02-02T02:21:44.523Z,48.33
2019-02-02T02:24:19.323Z,50.37
2019-02-02T02:26:54.563Z,48.33
2019-02-02T02:29:29.372Z,48.23
2019-02-02T02:32:04.322Z,44.93
2019-02-02T02:34:39.027Z,52.23
2019-02-02T02:37:18.756Z,51.73
2019-02-02T02:39:53.604Z,50.90
2019-02-02T02:42:28.468Z,49.63
2019-02-02T02:45:03.298Z,52.03
2019-02-02T02:47:38.480Z,50.33
2019-02-02T02:50:15.911Z,54.83
2019-02-02T02:52:50.853Z,43.23
2019-02-02T02:55:25.552Z,53.53
2019-02-02T02:58:00.375Z,48.23
2019-02-02T03:00:35.292Z,44.00
2019-02-02T03:03:14.956Z,50.17
2019-02-02T03:05:52.696Z,46.70
2019-02-02T03:08:27.808Z,52.07
2019-02-02T03:11:07.738Z,50.17
2019-02-02T03:13:44.110Z,57.60
2019-02-02T03:16:19.903Z,56.10
2019-02-02T03:18:54.698Z,50.37
2019-02-02T03:21:29.381Z,52.60
2019-02-02T03:24:04.315Z,50.73
2019-02-02T03:26:39.037Z,51.47
2019-02-02T03:29:13.867Z,53.03
2019-02-02T03:31:49.084Z,48.03
2019-02-02T03:34:24.787Z,48.37
2019-02-02T03:36:59.493Z,47.03
2019-02-02T03:39:36.192Z,52.63
2019-02-02T03:42:11.135Z,58.00
2019-02-02T03:44:45.942Z,57.83
2019-02-02T03:47:26.575Z,51.87
2019-02-02T03:50:02.119Z,50.77
2019-02-02T03:52:36.878Z,55.27
2019-02-02T03:55:14.296Z,53.40
2019-02-02T03:57:49.016Z,58.23
2019-02-02T04:00:24.099Z,54.90
2019-02-02T04:02:58.949Z,56.37
2019-02-02T04:05:33.887Z,53.37
2019-02-02T04:08:10.512Z,53.87
2019-02-02T04:10:45.250Z,54.43
2019-02-02T04:13:21.612Z,52.83
2019-02-02T04:15:58.901Z,52.60
2019-02-02T04:18:36.294Z,59.67
2019-02-02T04:21:15.641Z,57.83
2019-02-02T04:23:52.937Z,58.20
2019-02-02T04:26:30.204Z,57.03
2019-02-02T04:29:17.355Z,55.97
2019-02-02T04:31:42.742Z,58.70
2019-02-02T04:34:17.682Z,61.17
2019-02-02T04:36:52.636Z,60.73
2019-02-02T04:39:27.449Z,52.07
2019-02-02T04:42:02.279Z,51.90
2019-02-02T04:44:37.074Z,58.07
2019-02-02T04:47:11.976Z,59.63
2019-02-02T04:49:46.796Z,57.47
2019-02-02T04:52:21.646Z,56.60
2019-02-02T04:54:56.467Z,53.50
2019-02-02T04:57:31.343Z,52.60
2019-02-02T05:00:08.902Z,53.47
2019-02-02T05:02:43.916Z,54.93
2019-02-02T05:05:18.922Z,52.50
2019-02-02T05:07:53.869Z,50.87
2019-02-02T05:10:28.686Z,55.73
2019-02-02T05:13:03.519Z,56.17
2019-02-02T05:15:38.391Z,54.13
2019-02-02T05:18:13.133Z,62.90
2019-02-02T05:20:47.943Z,55.70
2019-02-02T05:23:24.063Z,59.80
2019-02-02T05:25:58.873Z,61.57
2019-02-02T05:28:34.599Z,56.80
2019-02-02T05:31:09.687Z,52.10
2019-02-02T05:33:44.664Z,53.10
2019-02-02T05:36:19.470Z,49.43
2019-02-02T05:38:55.189Z,55.40
2019-02-02T05:41:30.062Z,50.77
2019-02-02T05:44:04.905Z,55.07
2019-02-02T05:46:39.713Z,61.13
2019-02-02T05:49:14.601Z,54.00
2019-02-02T05:51:49.419Z,49.47
2019-02-02T05:54:24.273Z,54.50
2019-02-02T05:56:59.089Z,53.67
2019-02-02T05:59:33.921Z,53.80
2019-02-02T06:02:09.661Z,54.97
2019-02-02T06:04:44.475Z,56.93
2019-02-02T06:07:19.277Z,55.23
2019-02-02T06:09:54.118Z,55.17
2019-02-02T06:12:28.915Z,57.00
2019-02-02T06:15:03.772Z,59.47
2019-02-02T06:17:38.600Z,60.33
2019-02-02T06:20:13.649Z,58.83
2019-02-02T06:22:48.449Z,55.90
2019-02-02T06:25:23.363Z,52.83
2019-02-02T06:27:58.175Z,56.30
2019-02-02T06:30:33.149Z,57.80
2019-02-02T06:33:08.955Z,58.00
2019-02-02T06:35:43.791Z,57.27
2019-02-02T06:38:18.494Z,61.27
2019-02-02T06:40:53.375Z,62.97
2019-02-02T06:43:30.273Z,53.43
2019-02-02T06:46:04.737Z,60.80
2019-02-02T06:48:39.453Z,54.07
2019-02-02T06:51:16.083Z,57.90
2019-02-02T06:53:56.926Z,50.90
2019-02-02T06:56:32.847Z,57.27
2019-02-02T06:59:07.747Z,55.93
2019-02-02T07:01:42.569Z,67.13
2019-02-02T07:04:17.411Z,56.30
2019-02-02T07:06:52.331Z,59.83
2019-02-02T07:09:27.139Z,65.57
2019-02-02T07:12:01.986Z,65.83
2019-02-02T07:14:36.715Z,64.00
2019-02-02T07:17:11.566Z,66.07
2019-02-02T07:19:46.401Z,69.77
2019-02-02T07:22:21.641Z,52.83
2019-02-02T07:24:56.616Z,56.27
2019-02-02T07:27:31.461Z,66.27
2019-02-02T07:30:12.811Z,69.93
2019-02-02T07:32:47.683Z,63.47
2019-02-02T07:35:23.020Z,58.30
2019-02-02T07:37:58.831Z,64.60
2019-02-02T07:40:33.687Z,61.30
2019-02-02T07:43:08.509Z,69.33
2019-02-02T07:45:43.389Z,55.87
2019-02-02T07:48:18.311Z,59.53
2019-02-02T07:50:55.609Z,60.63
2019-02-02T07:53:30.463Z,62.03
2019-02-02T07:56:05.707Z,53.90
2019-02-02T07:58:40.577Z,57.97
2019-02-02T08:01:15.379Z,62.17
2019-02-02T08:03:53.047Z,58.50
2019-02-02T08:06:27.936Z,67.87
2019-02-02T08:09:03.546Z,58.37
2019-02-02T08:11:38.342Z,61.40
2019-02-02T08:14:19.211Z,58.93
2019-02-02T08:16:54.013Z,56.00
2019-02-02T08:19:32.917Z,59.27
2019-02-02T08:22:09.413Z,69.20
2019-02-02T08:24:44.427Z,53.40
2019-02-02T08:27:19.224Z,58.20
2019-02-02T08:29:54.094Z,57.87
2019-02-02T08:32:28.890Z,63.53
2019-02-02T08:35:03.737Z,58.27
2019-02-02T08:37:39.947Z,53.27
2019-02-02T08:40:17.898Z,64.13
2019-02-02T08:42:52.906Z,60.90
2019-02-02T08:45:27.890Z,55.70
2019-02-02T08:48:02.827Z,56.07
2019-02-02T08:50:39.610Z,58.60
2019-02-02T08:53:14.493Z,68.23
2019-02-02T08:55:51.893Z,51.87
2019-02-02T08:58:25.981Z,60.50
2019-02-02T09:01:04.292Z,65.83
2019-02-02T09:03:37.426Z,61.93
2019-02-02T09:06:12.501Z,60.70
2019-02-02T09:08:47.373Z,58.80
2019-02-02T09:11:24.180Z,62.97
2019-02-02T09:13:59.077Z,58.03
2019-02-02T09:16:33.972Z,64.57
2019-02-02T09:19:08.816Z,60.60
2019-02-02T09:21:43.879Z,60.90
2019-02-02T09:24:19.553Z,62.00
2019-02-02T09:26:55.522Z,64.60
2019-02-02T09:29:31.157Z,59.27
2019-02-02T09:32:09.868Z,58.83
2019-02-02T09:34:45.571Z,56.93
2019-02-02T09:37:21.779Z,56.93
2019-02-02T09:39:56.637Z,56.10
2019-02-02T09:42:31.521Z,58.57
2019-02-02T09:45:09.958Z,59.73
2019-02-02T09:47:44.852Z,62.30
2019-02-02T09:50:23.403Z,63.50
2019-02-02T09:52:58.765Z,60.03
2019-02-02T09:55:35.149Z,57.50
2019-02-02T09:58:12.503Z,65.10
2019-02-02T10:00:47.582Z,52.30
2019-02-02T10:03:22.681Z,58.17
2019-02-02T10:05:59.205Z,56.93
2019-02-02T10:08:34.156Z,53.70
2019-02-02T10:11:09.228Z,56.63
2019-02-02T10:13:45.775Z,66.53
2019-02-02T10:16:20.744Z,67.67
2019-02-02T10:18:55.769Z,53.57
2019-02-02T10:21:30.677Z,66.17
2019-02-02T10:24:05.540Z,61.97
2019-02-02T10:26:40.400Z,53.37
2019-02-02T10:29:15.221Z,72.27
2019-02-02T10:31:50.089Z,59.53
2019-02-02T10:34:25.237Z,64.13
2019-02-02T10:37:00.061Z,63.47
2019-02-02T10:39:35.097Z,55.67
2019-02-02T10:42:10.233Z,56.97
2019-02-02T10:44:45.229Z,57.47
2019-02-02T10:47:20.055Z,60.07
2019-02-02T10:49:54.900Z,62.10
2019-02-02T10:52:29.933Z,59.10
2019-02-02T10:55:05.570Z,61.17
2019-02-02T10:57:40.433Z,67.30
2019-02-02T11:00:19.254Z,61.27
2019-02-02T11:02:54.196Z,66.13
2019-02-02T11:05:29.190Z,58.40
2019-02-02T11:08:04.606Z,61.43
2019-02-02T11:10:39.814Z,65.03
2019-02-02T11:13:16.424Z,63.00
2019-02-02T11:15:52.444Z,62.43
2019-02-02T11:18:28.319Z,66.60
2019-02-02T11:21:06.007Z,68.10
2019-02-02T11:23:40.950Z,64.07
2019-02-02T11:26:15.987Z,60.90
2019-02-02T11:28:50.991Z,63.57
2019-02-02T11:31:25.937Z,68.37
2019-02-02T11:34:00.787Z,57.20
2019-02-02T11:36:35.768Z,60.27
2019-02-02T11:39:11.387Z,69.90
2019-02-02T11:41:46.150Z,65.57
2019-02-02T11:44:20.843Z,60.63
2019-02-02T11:46:55.707Z,60.03
2019-02-02T11:49:30.565Z,61.47
2019-02-02T11:52:05.469Z,71.47
2019-02-02T11:54:40.344Z,58.10
2019-02-02T11:57:15.226Z,67.27
2019-02-02T11:59:50.054Z,60.83
2019-02-02T12:02:24.870Z,56.33
2019-02-02T12:04:59.830Z,70.80
2019-02-02T12:07:35.555Z,57.40
2019-02-02T12:10:12.804Z,62.47
2019-02-02T12:12:48.576Z,71.43
2019-02-02T12:15:23.614Z,67.90
2019-02-02T12:17:58.484Z,68.47
2019-02-02T12:20:33.792Z,65.20
2019-02-02T12:23:08.874Z,66.63
2019-02-02T12:25:43.770Z,67.13
2019-02-02T12:28:18.641Z,70.40
2019-02-02T12:30:53.518Z,73.53
2019-02-02T12:33:29.299Z,64.60
2019-02-02T12:36:05.165Z,69.17
2019-02-02T12:38:40.048Z,68.73
2019-02-02T12:41:17.143Z,64.73
2019-02-02T12:43:54.446Z,72.70
2019-02-02T12:46:29.771Z,68.70
2019-02-02T12:49:07.107Z,76.93
2019-02-02T12:51:42.400Z,65.03
2019-02-02T12:54:17.254Z,67.87
2019-02-02T12:56:52.134Z,70.80
2019-02-02T12:59:27.015Z,74.57
2019-02-02T13:02:02.041Z,61.33
2019-02-02T13:04:40.257Z,73.77
2019-02-02T13:07:16.158Z,69.50
2019-02-02T13:09:51.143Z,61.90
2019-02-02T13:12:26.002Z,73.20
2019-02-02T13:15:01.266Z,68.47
2019-02-02T13:17:36.101Z,71.17
2019-02-02T13:20:12.092Z,69.63
2019-02-02T13:22:47.304Z,79.93
2019-02-02T13:25:24.035Z,73.43
2019-02-02T13:28:04.310Z,81.10
2019-02-02T13:30:39.199Z,63.63
2019-02-02T13:33:14.190Z,69.73
2019-02-02T13:35:50.227Z,64.70
2019-02-02T13:38:24.966Z,68.67
2019-02-02T13:40:59.727Z,74.67
2019-02-02T13:43:34.637Z,71.57
2019-02-02T13:46:09.584Z,73.67
2019-02-02T13:48:44.525Z,83.73
2019-02-02T13:51:19.428Z,73.67
2019-02-02T13:53:54.362Z,74.97
2019-02-02T13:56:29.194Z,75.47
2019-02-02T13:59:04.118Z,85.73
2019-02-02T14:01:42.271Z,68.77
2019-02-02T14:04:15.598Z,72.10
2019-02-02T14:06:54.399Z,78.37
2019-02-02T14:09:37.198Z,75.03
2019-02-02T14:12:12.128Z,78.00
2019-02-02T14:14:47.118Z,78.57
2019-02-02T14:17:21.977Z,73.87
2019-02-02T14:19:56.836Z,74.27
2019-02-02T14:22:31.924Z,79.57
2019-02-02T14:25:07.818Z,82.83
2019-02-02T14:27:43.267Z,84.00
2019-02-02T14:30:23.607Z,75.93
2019-02-02T14:32:58.482Z,87.57
2019-02-02T14:35:33.324Z,78.33
2019-02-02T14:38:08.182Z,93.37
2019-02-02T14:40:45.629Z,88.43
2019-02-02T14:43:20.480Z,90.50
2019-02-02T14:45:55.234Z,80.47
2019-02-02T14:48:30.084Z,89.03
2019-02-02T14:51:05.119Z,86.50
2019-02-02T14:53:40.080Z,89.30
2019-02-02T14:56:14.908Z,77.20
2019-02-02T14:58:49.832Z,97.23
2019-02-02T15:01:24.639Z,92.40
2019-02-02T15:03:59.578Z,83.23
2019-02-02T15:06:34.565Z,92.63
2019-02-02T15:09:10.060Z,81.53
2019-02-02T15:11:44.882Z,84.37
2019-02-02T15:14:19.728Z,91.40
2019-02-02T15:16:54.509Z,81.43
2019-02-02T15:19:29.352Z,91.13
2019-02-02T15:22:04.192Z,89.07
2019-02-02T15:24:39.054Z,84.47
2019-02-02T15:27:14.802Z,86.40
2019-02-02T15:29:49.586Z,85.70
2019-02-02T15:32:24.531Z,95.50
2019-02-02T15:34:59.387Z,82.97
2019-02-02T15:37:34.299Z,101.20
2019-02-02T15:40:10.830Z,82.67
2019-02-02T15:42:45.690Z,87.93
2019-02-02T15:45:23.156Z,95.00
2019-02-02T15:47:58.102Z,96.87
2019-02-02T15:50:33.082Z,91.17
2019-02-02T15:53:07.989Z,89.07
2019-02-02T15:55:43.130Z,86.63
2019-02-02T15:58:18.752Z,94.10
2019-02-02T16:00:54.083Z,88.80
2019-02-02T16:03:29.247Z,92.33
2019-02-02T16:06:04.256Z,96.30
2019-02-02T16:08:39.300Z,91.63
2019-02-02T16:11:14.174Z,93.97
2019-02-02T16:13:48.998Z,100.70
2019-02-02T16:16:23.906Z,95.60
2019-02-02T16:18:58.861Z,105.33
2019-02-02T16:21:35.338Z,98.50
2019-02-02T16:24:13.071Z,98.73
2019-02-02T16:26:48.746Z,96.40
2019-02-02T16:29:23.665Z,96.30
2019-02-02T16:32:03.571Z,88.87
2019-02-02T16:34:38.410Z,103.93
2019-02-02T16:37:14.858Z,86.17
2019-02-02T16:39:49.752Z,82.57
2019-02-02T16:42:24.806Z,99.87
2019-02-02T16:44:59.651Z,95.63
2019-02-02T16:47:34.535Z,91.53
2019-02-02T16:50:12.774Z,90.23
2019-02-02T16:52:48.015Z,104.23
2019-02-02T16:55:22.866Z,91.77
2019-02-02T16:57:57.762Z,96.50
2019-02-02T17:00:33.791Z,108.10
2019-02-02T17:03:11.323Z,85.00
2019-02-02T17:05:46.225Z,87.53
2019-02-02T17:08:21.122Z,93.83
2019-02-02T17:10:55.846Z,83.70
2019-02-02T17:13:31.564Z,93.77
2019-02-02T17:16:06.509Z,100.53
2019-02-02T17:18:41.374Z,110.07
2019-02-02T17:21:16.236Z,95.53
2019-02-02T17:23:51.108Z,96.30
2019-02-02T17:26:26.061Z,101.07
2019-02-02T17:29:00.940Z,100.87
2019-02-02T17:31:35.858Z,100.03
2019-02-02T17:34:10.846Z,88.03
2019-02-02T17:36:45.636Z,106.73
2019-02-02T17:39:20.627Z,105.13
2019-02-02T17:41:55.363Z,111.17
2019-02-02T17:44:30.241Z,114.90
2019-02-02T17:47:05.194Z,88.10
2019-02-02T17:49:40.069Z,102.40
2019-02-02T17:52:16.657Z,102.67
2019-02-02T17:54:51.515Z,104.67
2019-02-02T17:57:26.473Z,106.17
2019-02-02T18:00:01.519Z,100.13
2019-02-02T18:02:36.307Z,107.73
2019-02-02T18:05:11.725Z,103.57
2019-02-02T18:07:46.639Z,116.37
2019-02-02T18:10:21.550Z,109.53
2019-02-02T18:12:56.450Z,103.33
2019-02-02T18:15:31.534Z,110.47
2019-02-02T18:18:06.927Z,97.20
2019-02-02T18:20:41.799Z,90.53
2019-02-02T18:23:18.414Z,96.77
2019-02-02T18:25:58.565Z,106.87
2019-02-02T18:28:33.495Z,102.87
2019-02-02T18:31:08.419Z,98.30
2019-02-02T18:33:43.307Z,105.37
2019-02-02T18:36:18.198Z,105.27
2019-02-02T18:38:53.121Z,109.40
2019-02-02T18:41:27.958Z,98.53
2019-02-02T18:44:03.109Z,95.67
2019-02-02T18:46:38.178Z,99.33
2019-02-02T18:49:13.038Z,108.30
2019-02-02T18:51:47.909Z,89.37
2019-02-02T18:54:22.771Z,87.43
2019-02-02T18:56:58.596Z,103.17
2019-02-02T18:59:33.569Z,91.53
2019-02-02T19:02:08.499Z,102.93
2019-02-02T19:04:43.469Z,105.27
2019-02-02T19:07:18.514Z,100.63
2019-02-02T19:09:54.363Z,106.97
2019-02-02T19:12:31.718Z,111.23
2019-02-02T19:15:08.811Z,94.77
2019-02-02T19:17:43.881Z,89.53
2019-02-02T19:20:20.517Z,87.30
2019-02-02T19:22:57.142Z,104.40
2019-02-02T19:25:33.425Z,89.23
2019-02-02T19:28:09.475Z,102.83
2019-02-02T19:30:44.411Z,94.77
2019-02-02T19:33:19.307Z,98.50
2019-02-02T19:35:54.189Z,106.63
2019-02-02T19:38:29.083Z,106.03
2019-02-02T19:41:04.940Z,118.30
2019-02-02T19:43:39.811Z,108.70
2019-02-02T19:46:14.604Z,120.63
2019-02-02T19:48:49.493Z,104.83
2019-02-02T19:51:24.347Z,121.53
2019-02-02T19:53:59.139Z,117.83
2019-02-02T19:56:34.057Z,126.60
2019-02-02T19:59:08.831Z,120.90
2019-02-02T20:01:43.684Z,121.80
2019-02-02T20:04:18.529Z,128.17
2019-02-02T20:06:53.440Z,116.23
2019-02-02T20:09:28.394Z,112.73
2019-02-02T20:12:03.294Z,121.33
2019-02-02T20:14:38.156Z,106.40
2019-02-02T20:17:14.652Z,130.90
2019-02-02T20:19:49.633Z,114.20
2019-02-02T20:22:24.535Z,106.87
2019-02-02T20:24:59.393Z,115.10
2019-02-02T20:27:34.305Z,113.03
2019-02-02T20:30:16.009Z,115.37
2019-02-02T20:32:50.839Z,122.27
2019-02-02T20:35:25.940Z,128.73
2019-02-02T20:38:00.671Z,131.37
2019-02-02T20:40:35.527Z,132.63
2019-02-02T20:43:10.378Z,119.57
2019-02-02T20:45:45.231Z,113.93
2019-02-02T20:48:20.118Z,119.97
2019-02-02T20:50:54.889Z,135.87
2019-02-02T20:53:29.745Z,128.70
2019-02-02T20:56:04.631Z,134.03
2019-02-02T20:58:39.481Z,130.23
2019-02-02T21:01:14.361Z,105.37
2019-02-02T21:03:49.103Z,147.83
2019-02-02T21:06:24.072Z,135.30
2019-02-02T21:08:58.929Z,123.47
2019-02-02T21:11:34.467Z,115.20
2019-02-02T21:14:09.264Z,116.47
2019-02-02T21:16:45.087Z,109.50
2019-02-02T21:19:19.907Z,107.50
2019-02-02T21:21:54.690Z,133.03
2019-02-02T21:24:29.532Z,125.87
2019-02-02T21:27:04.486Z,136.87
2019-02-02T21:29:39.242Z,102.20
2019-02-02T21:32:14.171Z,103.53
2019-02-02T21:34:48.924Z,97.80
2019-02-02T21:37:23.839Z,103.73
2019-02-02T21:39:59.107Z,105.70
2019-02-02T21:42:35.086Z,105.97
2019-02-02T21:45:11.733Z,110.87
2019-02-02T21:47:49.574Z,110.87
2019-02-02T21:50:25.139Z,121.10
2019-02-02T21:53:00.204Z,105.00
2019-02-02T21:55:35.076Z,100.70
2019-02-02T21:58:09.967Z,111.70
2019-02-02T22:00:45.199Z,100.23
2019-02-02T22:03:20.174Z,106.07
2019-02-02T22:05:54.953Z,90.20
2019-02-02T22:08:30.223Z,85.57
2019-02-02T22:11:05.097Z,95.10
2019-02-02T22:13:39.985Z,82.67
2019-02-02T22:16:14.833Z,95.77
2019-02-02T22:18:49.685Z,86.03
2019-02-02T22:21:24.437Z,96.03
2019-02-02T22:24:01.761Z,96.73
2019-02-02T22:26:38.664Z,81.60
2019-02-02T22:29:14.085Z,93.40
2019-02-02T22:31:49.026Z,102.13
2019-02-02T22:34:25.009Z,103.63
2019-02-02T22:37:00.014Z,90.33
2019-02-02T22:39:34.911Z,96.63
2019-02-02T22:42:09.757Z,90.93
2019-02-02T22:44:44.499Z,84.20
2019-02-02T22:47:19.330Z,83.80
2019-02-02T22:49:54.323Z,78.63
2019-02-02T22:52:29.184Z,76.30
2019-02-02T22:55:05.364Z,90.10
2019-02-02T22:57:40.256Z,96.33
2019-02-02T23:00:58.284Z,95.93
2019-02-02T23:04:04.766Z,76.73
2019-02-02T23:07:52.835Z,84.67
2019-02-02T23:11:23.314Z,88.60
2019-02-02T23:14:50.933Z,86.17
2019-02-02T23:17:25.776Z,84.97
2019-02-02T23:20:00.955Z,98.27
2019-02-02T23:22:36.942Z,84.13
2019-02-02T23:25:11.799Z,86.57
2019-02-02T23:27:46.650Z,79.60
2019-02-02T23:30:21.990Z,82.03
2019-02-02T23:32:56.855Z,74.90
2019-02-02T23:35:31.754Z,81.53
2019-02-02T23:38:06.724Z,76.10
2019-02-02T23:40:41.732Z,79.33
2019-02-02T23:43:16.502Z,73.60
2019-02-02T23:45:51.332Z,75.30
2019-02-02T23:48:26.160Z,85.43
2019-02-02T23:51:00.898Z,82.03
2019-02-02T23:53:35.715Z,80.80
2019-02-02T23:56:10.539Z,75.80
2019-02-02T23:58:45.305Z,75.33
